createdAt,value
2022-08-30T00:00:46.763Z,4.22
2022-08-30T00:03:55.224Z,4.55
2022-08-30T00:06:42.667Z,4.45
2022-08-30T00:09:31.993Z,4.60
2022-08-30T00:12:21.113Z,4.90
2022-08-30T00:15:09.312Z,5.05
2022-08-30T00:17:59.335Z,4.68
2022-08-30T00:20:49.489Z,4.90
2022-08-30T00:23:38.327Z,5.15
2022-08-30T00:26:25.470Z,5.30
2022-08-30T00:29:12.999Z,4.57
2022-08-30T00:32:02.431Z,5.18
2022-08-30T00:34:50.861Z,5.00
2022-08-30T00:37:38.009Z,5.15
2022-08-30T00:40:27.562Z,4.55
2022-08-30T00:43:20.602Z,5.00
2022-08-30T00:46:08.411Z,5.10
2022-08-30T00:48:56.954Z,5.07
2022-08-30T00:51:44.646Z,5.13
2022-08-30T00:54:34.137Z,5.75
2022-08-30T00:57:21.434Z,5.40
2022-08-30T01:00:09.349Z,5.43
2022-08-30T01:02:56.709Z,5.07
2022-08-30T01:05:44.580Z,5.60
2022-08-30T01:08:32.318Z,5.20
2022-08-30T01:11:24.218Z,4.38
2022-08-30T01:14:12.614Z,5.63
2022-08-30T01:17:05.358Z,4.75
2022-08-30T01:20:03.004Z,5.10
2022-08-30T01:22:50.182Z,4.95
2022-08-30T01:25:38.099Z,4.43
2022-08-30T01:28:26.879Z,5.05
2022-08-30T01:31:15.386Z,4.82
2022-08-30T01:34:05.256Z,5.15
2022-08-30T01:36:52.491Z,4.78
2022-08-30T01:39:39.922Z,4.75
2022-08-30T01:42:28.430Z,5.10
2022-08-30T01:45:16.033Z,5.03
2022-08-30T01:48:05.541Z,4.78
2022-08-30T01:50:54.028Z,4.60
2022-08-30T01:53:43.064Z,4.80
2022-08-30T01:56:30.317Z,4.85
2022-08-30T01:59:17.870Z,5.50
2022-08-30T02:02:05.462Z,5.13
2022-08-30T02:04:54.104Z,5.03
2022-08-30T02:07:41.287Z,4.82
2022-08-30T02:10:29.681Z,4.75
2022-08-30T02:13:17.165Z,4.60
2022-08-30T02:16:06.325Z,4.72
2022-08-30T02:18:55.165Z,4.70
2022-08-30T02:21:42.438Z,4.75
2022-08-30T02:24:29.618Z,4.80
2022-08-30T02:27:16.842Z,4.95
2022-08-30T02:30:07.487Z,5.07
2022-08-30T02:32:57.830Z,5.15
2022-08-30T02:35:45.095Z,5.30
2022-08-30T02:38:32.919Z,5.47
2022-08-30T02:41:20.838Z,5.05
2022-08-30T02:44:08.835Z,5.15
2022-08-30T02:46:56.414Z,4.85
2022-08-30T02:49:43.526Z,4.88
2022-08-30T02:52:30.739Z,5.70
2022-08-30T02:55:18.131Z,4.90
2022-08-30T02:58:05.512Z,5.07
2022-08-30T03:00:53.292Z,5.00
2022-08-30T03:03:42.052Z,5.05
2022-08-30T03:06:29.313Z,4.93
2022-08-30T03:09:16.446Z,5.15
2022-08-30T03:12:05.689Z,5.03
2022-08-30T03:14:53.426Z,4.72
2022-08-30T03:17:41.291Z,5.70
2022-08-30T03:20:28.854Z,4.95
2022-08-30T03:23:17.375Z,5.20
2022-08-30T03:26:12.593Z,5.57
2022-08-30T03:28:59.773Z,4.93
2022-08-30T03:31:52.860Z,5.70
2022-08-30T03:34:40.721Z,4.80
2022-08-30T03:37:27.927Z,5.45
2022-08-30T03:40:18.807Z,5.35
2022-08-30T03:43:06.031Z,5.00
2022-08-30T03:45:53.369Z,4.93
2022-08-30T03:48:41.102Z,6.05
2022-08-30T03:51:28.272Z,5.57
2022-08-30T03:54:15.442Z,5.07
2022-08-30T03:57:02.603Z,4.85
2022-08-30T03:59:50.123Z,5.05
2022-08-30T04:02:37.822Z,5.03
2022-08-30T04:05:25.273Z,5.85
2022-08-30T04:08:12.398Z,4.88
2022-08-30T04:11:01.015Z,5.85
2022-08-30T04:13:51.841Z,5.97
2022-08-30T04:16:38.994Z,5.28
2022-08-30T04:19:26.252Z,5.60
2022-08-30T04:22:13.563Z,5.30
2022-08-30T04:25:00.783Z,5.65
2022-08-30T04:27:48.045Z,5.63
2022-08-30T04:30:39.798Z,5.15
2022-08-30T04:33:27.215Z,5.50
2022-08-30T04:36:14.533Z,5.15
2022-08-30T04:39:01.665Z,6.05
2022-08-30T04:41:48.838Z,5.50
2022-08-30T04:44:35.979Z,5.40
2022-08-30T04:47:23.224Z,5.75
2022-08-30T04:50:13.035Z,5.10
2022-08-30T04:53:00.213Z,5.78
2022-08-30T04:55:47.377Z,4.90
2022-08-30T04:58:34.679Z,5.53
2022-08-30T05:01:25.122Z,5.32
2022-08-30T05:04:15.229Z,5.38
2022-08-30T05:07:02.508Z,6.03
2022-08-30T05:09:50.112Z,6.00
2022-08-30T05:12:37.409Z,5.60
2022-08-30T05:15:24.688Z,5.70
2022-08-30T05:18:14.043Z,5.28
2022-08-30T05:21:11.427Z,5.22
2022-08-30T05:24:00.302Z,5.57
2022-08-30T05:29:35.710Z,4.75
2022-08-30T05:32:23.168Z,4.95
2022-08-30T05:35:13.032Z,5.13
2022-08-30T05:38:00.144Z,4.70
2022-08-30T05:40:47.371Z,5.03
2022-08-30T05:43:35.023Z,4.97
2022-08-30T05:46:22.524Z,5.30
2022-08-30T05:49:10.793Z,4.50
2022-08-30T05:51:58.037Z,4.97
2022-08-30T05:54:46.585Z,5.07
2022-08-30T05:57:36.094Z,4.63
2022-08-30T06:00:23.787Z,4.25
2022-08-30T06:03:12.874Z,4.10
2022-08-30T06:06:01.051Z,4.60
2022-08-30T06:08:48.994Z,4.03
2022-08-30T06:11:36.702Z,3.80
2022-08-30T06:14:24.890Z,4.20
2022-08-30T06:17:12.337Z,3.80
2022-08-30T06:20:02.013Z,4.03
2022-08-30T06:22:49.329Z,3.58
2022-08-30T06:25:41.395Z,3.58
2022-08-30T06:28:29.597Z,3.53
2022-08-30T06:31:18.871Z,3.75
2022-08-30T06:34:06.585Z,3.83
2022-08-30T06:36:53.956Z,3.85
2022-08-30T06:39:41.181Z,3.58
2022-08-30T06:42:32.336Z,3.90
2022-08-30T06:45:20.535Z,3.50
2022-08-30T06:48:07.767Z,3.60
2022-08-30T06:50:55.348Z,3.47
2022-08-30T06:53:42.795Z,3.58
2022-08-30T06:56:31.118Z,3.38
2022-08-30T06:59:18.595Z,3.28
2022-08-30T07:02:06.407Z,3.35
2022-08-30T07:04:54.232Z,3.30
2022-08-30T07:07:41.522Z,3.28
2022-08-30T07:10:28.839Z,3.17
2022-08-30T07:13:16.869Z,3.35
2022-08-30T07:16:12.950Z,3.50
2022-08-30T07:19:01.883Z,3.58
2022-08-30T07:21:49.608Z,3.30
2022-08-30T07:24:37.317Z,3.25
2022-08-30T07:27:24.604Z,3.00
2022-08-30T07:30:12.864Z,3.58
2022-08-30T07:33:00.234Z,3.50
2022-08-30T07:35:48.283Z,3.33
2022-08-30T07:38:36.033Z,3.10
2022-08-30T07:41:28.861Z,3.50
2022-08-30T07:44:16.586Z,3.47
2022-08-30T07:47:04.274Z,3.65
2022-08-30T07:49:51.731Z,3.20
2022-08-30T07:52:39.690Z,3.05
2022-08-30T07:55:27.151Z,3.08
2022-08-30T07:58:15.042Z,3.10
2022-08-30T08:01:02.301Z,3.10
2022-08-30T08:03:50.448Z,3.50
2022-08-30T08:06:40.133Z,3.05
2022-08-30T08:09:27.983Z,3.30
2022-08-30T08:12:15.297Z,3.30
2022-08-30T08:15:06.648Z,3.25
2022-08-30T08:17:56.270Z,3.50
2022-08-30T08:20:43.478Z,3.17
2022-08-30T08:23:30.860Z,3.25
2022-08-30T08:26:19.142Z,3.50
2022-08-30T08:29:08.637Z,3.00
2022-08-30T08:31:57.767Z,3.13
2022-08-30T08:34:45.066Z,2.92
2022-08-30T08:37:33.118Z,2.97
2022-08-30T08:40:20.778Z,3.00
2022-08-30T08:43:12.665Z,3.10
2022-08-30T08:46:06.361Z,3.50
2022-08-30T08:49:00.852Z,3.38
2022-08-30T08:52:06.661Z,3.00
2022-08-30T08:55:02.029Z,3.78
2022-08-30T08:57:49.999Z,3.53
2022-08-30T09:00:37.234Z,3.60
2022-08-30T09:03:27.678Z,3.63
2022-08-30T09:09:41.428Z,3.40
2022-08-30T09:12:28.822Z,3.42
2022-08-30T09:15:24.814Z,3.42
2022-08-30T09:18:19.354Z,3.80
2022-08-30T09:21:08.109Z,3.45
2022-08-30T09:23:59.357Z,3.70
2022-08-30T09:26:47.847Z,3.42
2022-08-30T09:29:35.033Z,4.05
2022-08-30T09:32:43.258Z,3.47
2022-08-30T09:35:46.595Z,3.33
2022-08-30T09:38:34.347Z,3.78
2022-08-30T09:41:35.457Z,3.85
2022-08-30T09:44:28.216Z,3.80
2022-08-30T09:47:28.702Z,3.90
2022-08-30T09:50:24.176Z,3.95
2022-08-30T09:53:23.522Z,3.55
2022-08-30T09:56:41.313Z,3.70
2022-08-30T09:59:45.920Z,3.30
2022-08-30T10:02:48.833Z,3.45
2022-08-30T10:06:05.386Z,3.63
2022-08-30T10:09:13.346Z,3.50
2022-08-30T10:12:17.229Z,3.72
2022-08-30T10:15:35.883Z,3.70
2022-08-30T10:18:57.313Z,3.72
2022-08-30T10:22:20.964Z,3.90
2022-08-30T10:25:19.180Z,3.78
2022-08-30T10:28:36.609Z,3.58
2022-08-30T10:31:53.266Z,4.13
2022-08-30T10:35:09.305Z,3.63
2022-08-30T10:38:08.797Z,3.88
2022-08-30T10:41:24.099Z,3.60
2022-08-30T10:44:29.419Z,3.13
2022-08-30T10:47:32.005Z,3.40
2022-08-30T10:50:22.697Z,3.47
2022-08-30T10:53:12.473Z,3.95
2022-08-30T10:56:07.135Z,3.90
2022-08-30T10:58:54.942Z,3.20
2022-08-30T11:02:19.630Z,3.80
2022-08-30T11:05:25.026Z,3.40
2022-08-30T11:08:49.371Z,3.60
2022-08-30T11:11:57.682Z,3.50
2022-08-30T11:14:46.313Z,3.80
2022-08-30T11:18:02.864Z,3.50
2022-08-30T11:20:53.321Z,3.60
2022-08-30T11:26:46.776Z,3.55
2022-08-30T11:29:44.284Z,4.03
2022-08-30T11:33:02.192Z,3.83
2022-08-30T11:35:52.592Z,3.60
2022-08-30T11:41:47.646Z,3.33
2022-08-30T11:44:35.344Z,3.42
2022-08-30T11:47:39.098Z,3.83
2022-08-30T11:50:44.312Z,3.78
2022-08-30T11:53:40.935Z,3.58
2022-08-30T11:56:59.481Z,3.40
2022-08-30T12:00:08.682Z,3.47
2022-08-30T12:03:00.115Z,3.95
2022-08-30T12:05:52.389Z,3.45
2022-08-30T12:08:55.122Z,3.50
2022-08-30T12:12:05.521Z,3.80
2022-08-30T12:14:55.017Z,3.65
2022-08-30T12:18:01.634Z,3.92
2022-08-30T12:21:00.649Z,3.63
2022-08-30T12:23:52.290Z,3.67
2022-08-30T12:26:43.989Z,3.40
2022-08-30T12:29:31.801Z,3.55
2022-08-30T12:32:22.024Z,3.70
2022-08-30T12:35:19.449Z,3.35
2022-08-30T12:38:18.271Z,3.58
2022-08-30T12:41:05.987Z,3.70
2022-08-30T12:43:53.273Z,3.50
2022-08-30T12:46:43.656Z,3.33
2022-08-30T12:49:35.597Z,3.45
2022-08-30T12:52:26.500Z,4.10
2022-08-30T12:55:22.029Z,3.47
2022-08-30T12:58:11.594Z,3.92
2022-08-30T13:01:12.713Z,3.40
2022-08-30T13:04:18.507Z,3.33
2022-08-30T13:07:05.946Z,3.80
2022-08-30T13:10:02.726Z,3.67
2022-08-30T13:13:02.293Z,3.72
2022-08-30T13:15:49.538Z,3.27
2022-08-30T13:18:37.085Z,3.47
2022-08-30T13:21:25.026Z,3.60
2022-08-30T13:24:12.333Z,3.40
2022-08-30T13:27:06.577Z,3.63
2022-08-30T13:29:54.139Z,3.50
2022-08-30T13:32:41.652Z,3.53
2022-08-30T13:35:30.317Z,3.58
2022-08-30T13:38:17.535Z,3.38
2022-08-30T13:41:05.196Z,3.50
2022-08-30T13:50:08.279Z,3.53
2022-08-30T13:52:57.833Z,3.30
2022-08-30T13:55:45.468Z,3.70
2022-08-30T13:58:35.394Z,3.60
2022-08-30T14:01:22.905Z,3.67
2022-08-30T14:04:13.820Z,3.92
2022-08-30T14:07:20.540Z,3.58
2022-08-30T14:13:16.219Z,3.13
2022-08-30T14:19:16.002Z,3.30
2022-08-30T14:22:03.358Z,3.20
2022-08-30T14:24:50.557Z,3.65
2022-08-30T14:27:37.757Z,3.72
2022-08-30T14:30:26.131Z,3.30
2022-08-30T14:33:13.884Z,3.20
2022-08-30T14:36:01.122Z,3.30
2022-08-30T14:38:48.542Z,3.22
2022-08-30T14:41:43.777Z,3.28
2022-08-30T14:44:45.678Z,3.30
2022-08-30T14:47:39.175Z,3.10
2022-08-30T14:50:27.962Z,3.20
2022-08-30T14:53:15.389Z,3.75
2022-08-30T14:56:17.004Z,3.28
2022-08-30T14:59:07.459Z,3.33
2022-08-30T15:01:55.792Z,3.35
2022-08-30T15:04:43.041Z,3.22
2022-08-30T15:07:30.874Z,3.40
2022-08-30T15:10:20.139Z,3.03
2022-08-30T15:13:07.795Z,3.40
2022-08-30T15:15:56.562Z,3.33
2022-08-30T15:18:45.120Z,3.17
2022-08-30T15:21:39.094Z,3.20
2022-08-30T15:24:29.893Z,3.20
2022-08-30T15:27:17.331Z,3.30
2022-08-30T15:30:06.029Z,3.08
2022-08-30T15:32:53.651Z,3.45
2022-08-30T15:35:40.834Z,3.30
2022-08-30T15:38:29.101Z,3.03
2022-08-30T15:41:16.396Z,3.00
2022-08-30T15:44:04.590Z,3.10
2022-08-30T15:46:52.117Z,3.30
2022-08-30T15:49:40.018Z,3.40
2022-08-30T15:52:27.759Z,3.50
2022-08-30T15:55:14.965Z,3.10
2022-08-30T15:58:02.339Z,3.30
2022-08-30T16:00:49.706Z,2.83
2022-08-30T16:03:40.533Z,3.35
2022-08-30T16:06:31.315Z,3.17
2022-08-30T16:09:19.178Z,3.13
2022-08-30T16:12:07.601Z,2.90
2022-08-30T16:14:57.213Z,3.10
2022-08-30T16:17:45.197Z,2.90
2022-08-30T16:20:33.058Z,2.63
2022-08-30T16:23:20.287Z,2.67
2022-08-30T16:26:08.046Z,2.80
2022-08-30T16:28:57.442Z,3.10
2022-08-30T16:31:45.011Z,2.75
2022-08-30T16:34:33.436Z,2.50
2022-08-30T16:37:20.702Z,2.50
2022-08-30T16:40:08.896Z,2.72
2022-08-30T16:42:56.329Z,2.60
2022-08-30T16:45:45.156Z,2.83
2022-08-30T16:48:38.524Z,2.83
2022-08-30T16:51:30.423Z,2.85
2022-08-30T16:54:17.930Z,3.05
2022-08-30T16:57:06.485Z,2.85
2022-08-30T16:59:53.814Z,2.90
2022-08-30T17:02:45.263Z,2.80
2022-08-30T17:05:43.095Z,2.55
2022-08-30T17:08:32.814Z,2.97
2022-08-30T17:11:20.084Z,2.72
2022-08-30T17:14:07.669Z,2.95
2022-08-30T17:16:57.819Z,2.70
2022-08-30T17:19:45.201Z,3.10
2022-08-30T17:22:33.066Z,2.88
2022-08-30T17:25:20.615Z,2.92
2022-08-30T17:28:07.953Z,3.00
2022-08-30T17:30:55.888Z,3.22
2022-08-30T17:33:45.516Z,2.80
2022-08-30T17:36:36.505Z,2.90
2022-08-30T17:39:24.048Z,2.70
2022-08-30T17:42:11.348Z,3.15
2022-08-30T17:45:02.350Z,2.97
2022-08-30T17:47:54.070Z,2.90
2022-08-30T17:50:41.293Z,2.85
2022-08-30T17:53:30.465Z,2.90
2022-08-30T17:56:20.129Z,2.67
2022-08-30T17:59:08.179Z,3.00
2022-08-30T18:01:56.522Z,3.20
2022-08-30T18:04:44.762Z,2.97
2022-08-30T18:07:31.935Z,2.63
2022-08-30T18:10:19.706Z,3.10
2022-08-30T18:13:15.679Z,3.00
2022-08-30T18:16:04.399Z,3.00
2022-08-30T18:18:57.033Z,3.10
2022-08-30T18:22:03.122Z,3.30
2022-08-30T18:24:50.825Z,3.13
2022-08-30T18:27:39.371Z,2.92
2022-08-30T18:30:33.980Z,3.15
2022-08-30T18:33:22.077Z,3.25
2022-08-30T18:36:09.376Z,2.67
2022-08-30T18:38:57.827Z,2.80
2022-08-30T18:41:45.274Z,3.20
2022-08-30T18:44:34.701Z,3.08
2022-08-30T18:47:23.466Z,3.25
2022-08-30T18:50:10.879Z,2.75
2022-08-30T18:52:59.347Z,3.22
2022-08-30T18:55:48.393Z,3.08
2022-08-30T18:58:36.567Z,2.95
2022-08-30T19:01:23.899Z,3.20
2022-08-30T19:04:11.560Z,3.17
2022-08-30T19:07:12.170Z,3.22
2022-08-30T19:09:59.530Z,2.70
2022-08-30T19:12:47.124Z,3.35
2022-08-30T19:15:35.271Z,3.20
2022-08-30T19:18:22.518Z,4.53
2022-08-30T19:21:09.848Z,4.95
2022-08-30T19:24:01.205Z,4.85
2022-08-30T19:26:48.485Z,4.75
2022-08-30T19:29:35.666Z,4.80
2022-08-30T19:32:23.398Z,4.18
2022-08-30T19:35:10.904Z,4.57
2022-08-30T19:37:58.465Z,4.38
2022-08-30T19:40:45.882Z,3.58
2022-08-30T19:43:34.131Z,3.55
2022-08-30T19:46:21.300Z,3.53
2022-08-30T19:49:10.391Z,3.25
2022-08-30T19:51:57.782Z,3.05
2022-08-30T19:54:45.479Z,3.03
2022-08-30T19:57:32.802Z,2.83
2022-08-30T20:00:20.522Z,3.10
2022-08-30T20:03:07.794Z,3.10
2022-08-30T20:05:55.482Z,3.10
2022-08-30T20:08:43.834Z,2.83
2022-08-30T20:11:31.277Z,3.00
2022-08-30T20:14:19.329Z,2.88
2022-08-30T20:17:06.981Z,2.80
2022-08-30T20:20:03.379Z,2.80
2022-08-30T20:22:54.248Z,3.15
2022-08-30T20:25:41.933Z,3.70
2022-08-30T20:28:29.864Z,4.20
2022-08-30T20:31:17.420Z,3.63
2022-08-30T20:34:05.242Z,4.22
2022-08-30T20:36:52.637Z,3.88
2022-08-30T20:39:42.638Z,4.30
2022-08-30T20:42:30.232Z,3.70
2022-08-30T20:45:17.755Z,3.70
2022-08-30T20:48:05.897Z,3.70
2022-08-30T20:50:53.157Z,3.78
2022-08-30T20:53:40.614Z,3.70
2022-08-30T20:56:29.445Z,3.55
2022-08-30T20:59:16.713Z,3.70
2022-08-30T21:02:04.341Z,4.07
2022-08-30T21:04:51.690Z,3.75
2022-08-30T21:07:40.431Z,3.65
2022-08-30T21:10:27.597Z,3.75
2022-08-30T21:13:14.990Z,3.00
2022-08-30T21:16:03.656Z,3.08
2022-08-30T21:18:51.130Z,3.20
2022-08-30T21:21:38.293Z,3.40
2022-08-30T21:24:25.835Z,3.45
2022-08-30T21:27:13.211Z,2.83
2022-08-30T21:30:00.467Z,2.85
2022-08-30T21:32:47.677Z,3.35
2022-08-30T21:35:55.379Z,3.47
2022-08-30T21:38:43.102Z,3.20
2022-08-30T21:41:31.885Z,3.28
2022-08-30T21:44:21.713Z,3.00
2022-08-30T21:47:09.588Z,3.13
2022-08-30T21:49:56.924Z,2.85
2022-08-30T21:52:44.467Z,3.00
2022-08-30T21:55:32.551Z,2.70
2022-08-30T21:58:19.807Z,3.60
2022-08-30T22:01:25.458Z,3.22
2022-08-30T22:04:13.780Z,3.70
2022-08-30T22:07:03.093Z,3.10
2022-08-30T22:09:50.408Z,3.22
2022-08-30T22:12:38.537Z,3.03
2022-08-30T22:15:28.850Z,3.30
2022-08-30T22:18:16.860Z,3.17
2022-08-30T22:21:07.350Z,3.10
2022-08-30T22:23:55.584Z,3.33
2022-08-30T22:26:44.002Z,3.25
2022-08-30T22:29:31.684Z,3.28
2022-08-30T22:32:19.030Z,3.65
2022-08-30T22:35:07.138Z,3.00
2022-08-30T22:37:54.439Z,3.40
2022-08-30T22:40:48.058Z,3.28
2022-08-30T22:43:35.342Z,3.15
2022-08-30T22:46:25.678Z,3.63
2022-08-30T22:49:21.238Z,3.20
2022-08-30T22:52:08.987Z,3.00
2022-08-30T22:54:56.263Z,3.50
2022-08-30T22:57:43.657Z,3.65
2022-08-30T23:00:30.950Z,3.83
2022-08-30T23:03:19.031Z,3.00
2022-08-30T23:06:06.575Z,3.00
2022-08-30T23:08:54.132Z,3.45
2022-08-30T23:11:41.296Z,3.28
2022-08-30T23:14:28.499Z,3.47
2022-08-30T23:17:18.522Z,3.70
2022-08-30T23:20:06.382Z,3.50
2022-08-30T23:22:59.304Z,3.30
2022-08-30T23:26:05.415Z,3.30
2022-08-30T23:29:11.267Z,3.80
2022-08-30T23:32:17.639Z,3.35
2022-08-30T23:35:29.653Z,3.70
2022-08-30T23:38:35.482Z,3.63
2022-08-30T23:41:41.183Z,3.38
2022-08-30T23:44:46.871Z,3.33
2022-08-30T23:47:52.373Z,3.55
2022-08-30T23:50:58.113Z,3.38
2022-08-30T23:54:03.952Z,3.70
2022-08-30T23:57:10.803Z,3.80
